Terminal Aerodrome Forecast
Issued by NWS

Home | Current Version | Previous Version | Text Only | Print | Product List | Glossary On
Versions: 1 2 3 4 5 6 7 8 9 10 11 12 13 14 15
000
FTUS41 KRNK 241729
TAFLWB
TAF
KLWB 241729Z 2418/2518 25004KT P6SM SCT035
     FM250100 00000KT P6SM BKN045
     FM250800 00000KT 1 1/2SM BR SCT050 BKN150
     FM251330 26004KT P6SM BKN035=

USA.gov is the U.S. government's official web portal to all federal, state and local government web resources and services.